sensor_id;sensor_type;location;lat;lon;timestamp;P1;durP1;ratioP1;P2;durP2;ratioP2
42140;SDS011;27809;51.864;5.646;2023-04-09T00:00:33;23.25;;;12.90;;
42140;SDS011;27809;51.864;5.646;2023-04-09T00:02:59;21.38;;;13.23;;
42140;SDS011;27809;51.864;5.646;2023-04-09T00:05:24;24.70;;;14.18;;
42140;SDS011;27809;51.864;5.646;2023-04-09T00:07:50;24.08;;;12.02;;
42140;SDS011;27809;51.864;5.646;2023-04-09T00:10:15;21.00;;;13.80;;
42140;SDS011;27809;51.864;5.646;2023-04-09T00:12:41;20.42;;;12.88;;
42140;SDS011;27809;51.864;5.646;2023-04-09T00:15:07;21.15;;;13.32;;
42140;SDS011;27809;51.864;5.646;2023-04-09T00:17:33;21.58;;;12.38;;
42140;SDS011;27809;51.864;5.646;2023-04-09T00:19:58;22.15;;;13.55;;
42140;SDS011;27809;51.864;5.646;2023-04-09T00:22:24;21.80;;;11.77;;
42140;SDS011;27809;51.864;5.646;2023-04-09T00:24:49;24.00;;;13.38;;
42140;SDS011;27809;51.864;5.646;2023-04-09T00:27:15;23.30;;;12.88;;
42140;SDS011;27809;51.864;5.646;2023-04-09T00:29:40;22.85;;;12.95;;
42140;SDS011;27809;51.864;5.646;2023-04-09T00:32:06;20.88;;;12.30;;
42140;SDS011;27809;51.864;5.646;2023-04-09T00:34:32;23.38;;;14.10;;
42140;SDS011;27809;51.864;5.646;2023-04-09T00:36:57;21.23;;;12.27;;
42140;SDS011;27809;51.864;5.646;2023-04-09T00:39:23;20.20;;;11.38;;
42140;SDS011;27809;51.864;5.646;2023-04-09T00:41:49;17.42;;;9.98;;
42140;SDS011;27809;51.864;5.646;2023-04-09T00:44:14;24.63;;;13.10;;
42140;SDS011;27809;51.864;5.646;2023-04-09T00:46:40;21.52;;;12.80;;
42140;SDS011;27809;51.864;5.646;2023-04-09T00:49:05;22.25;;;12.88;;
42140;SDS011;27809;51.864;5.646;2023-04-09T00:51:32;20.75;;;12.02;;
42140;SDS011;27809;51.864;5.646;2023-04-09T00:53:57;26.52;;;13.38;;
42140;SDS011;27809;51.864;5.646;2023-04-09T00:56:23;20.95;;;12.27;;
42140;SDS011;27809;51.864;5.646;2023-04-09T00:58:51;21.17;;;13.10;;
42140;SDS011;27809;51.864;5.646;2023-04-09T01:01:16;20.98;;;12.25;;
42140;SDS011;27809;51.864;5.646;2023-04-09T01:03:42;25.55;;;13.85;;
42140;SDS011;27809;51.864;5.646;2023-04-09T01:06:20;19.95;;;12.02;;
42140;SDS011;27809;51.864;5.646;2023-04-09T01:08:58;20.42;;;11.52;;
42140;SDS011;27809;51.864;5.646;2023-04-09T01:14:06;20.08;;;12.80;;
42140;SDS011;27809;51.864;5.646;2023-04-09T01:16:43;22.63;;;12.35;;
42140;SDS011;27809;51.864;5.646;2023-04-09T01:22:31;19.47;;;10.23;;
42140;SDS011;27809;51.864;5.646;2023-04-09T01:30:40;24.45;;;13.27;;
42140;SDS011;27809;51.864;5.646;2023-04-09T01:33:11;24.23;;;12.45;;
42140;SDS011;27809;51.864;5.646;2023-04-09T01:35:39;28.95;;;13.30;;
42140;SDS011;27809;51.864;5.646;2023-04-09T01:38:07;23.77;;;13.55;;
42140;SDS011;27809;51.864;5.646;2023-04-09T01:40:34;21.67;;;12.63;;
42140;SDS011;27809;51.864;5.646;2023-04-09T01:43:00;26.50;;;15.10;;
42140;SDS011;27809;51.864;5.646;2023-04-09T01:45:27;24.85;;;12.75;;
42140;SDS011;27809;51.864;5.646;2023-04-09T01:47:53;28.30;;;14.15;;
42140;SDS011;27809;51.864;5.646;2023-04-09T01:50:20;21.65;;;12.45;;
42140;SDS011;27809;51.864;5.646;2023-04-09T01:52:46;29.75;;;15.88;;
42140;SDS011;27809;51.864;5.646;2023-04-09T01:55:12;20.98;;;12.23;;
42140;SDS011;27809;51.864;5.646;2023-04-09T01:57:38;24.90;;;12.90;;
42140;SDS011;27809;51.864;5.646;2023-04-09T02:00:04;28.63;;;14.43;;
42140;SDS011;27809;51.864;5.646;2023-04-09T02:02:38;26.80;;;13.68;;
42140;SDS011;27809;51.864;5.646;2023-04-09T02:05:10;31.60;;;14.55;;
42140;SDS011;27809;51.864;5.646;2023-04-09T02:07:38;25.92;;;13.98;;
42140;SDS011;27809;51.864;5.646;2023-04-09T02:10:05;26.13;;;14.45;;
42140;SDS011;27809;51.864;5.646;2023-04-09T02:12:35;24.67;;;13.95;;
42140;SDS011;27809;51.864;5.646;2023-04-09T02:15:02;26.50;;;14.68;;
42140;SDS011;27809;51.864;5.646;2023-04-09T02:17:29;22.67;;;12.75;;
42140;SDS011;27809;51.864;5.646;2023-04-09T02:19:55;23.48;;;13.02;;
42140;SDS011;27809;51.864;5.646;2023-04-09T02:22:21;30.83;;;16.95;;
42140;SDS011;27809;51.864;5.646;2023-04-09T02:24:46;25.45;;;13.52;;
42140;SDS011;27809;51.864;5.646;2023-04-09T02:27:12;25.13;;;14.32;;
42140;SDS011;27809;51.864;5.646;2023-04-09T02:29:38;24.23;;;13.45;;
42140;SDS011;27809;51.864;5.646;2023-04-09T02:32:05;21.65;;;13.15;;
42140;SDS011;27809;51.864;5.646;2023-04-09T02:34:31;26.25;;;12.40;;
42140;SDS011;27809;51.864;5.646;2023-04-09T02:36:56;25.30;;;13.80;;
42140;SDS011;27809;51.864;5.646;2023-04-09T02:39:22;25.25;;;14.15;;
42140;SDS011;27809;51.864;5.646;2023-04-09T02:41:47;22.50;;;12.40;;
42140;SDS011;27809;51.864;5.646;2023-04-09T02:44:13;22.42;;;12.38;;
42140;SDS011;27809;51.864;5.646;2023-04-09T02:46:39;21.88;;;12.43;;
42140;SDS011;27809;51.864;5.646;2023-04-09T02:49:05;21.45;;;12.13;;
42140;SDS011;27809;51.864;5.646;2023-04-09T02:51:33;18.70;;;10.85;;
42140;SDS011;27809;51.864;5.646;2023-04-09T02:54:02;20.70;;;11.07;;
42140;SDS011;27809;51.864;5.646;2023-04-09T02:56:28;20.75;;;11.85;;
42140;SDS011;27809;51.864;5.646;2023-04-09T02:58:53;24.38;;;12.32;;
42140;SDS011;27809;51.864;5.646;2023-04-09T03:01:19;24.80;;;12.95;;
42140;SDS011;27809;51.864;5.646;2023-04-09T03:03:45;21.73;;;12.27;;
42140;SDS011;27809;51.864;5.646;2023-04-09T03:06:11;22.65;;;12.93;;
42140;SDS011;27809;51.864;5.646;2023-04-09T03:08:37;24.15;;;12.25;;
42140;SDS011;27809;51.864;5.646;2023-04-09T03:11:02;21.27;;;12.52;;
42140;SDS011;27809;51.864;5.646;2023-04-09T03:13:28;23.90;;;12.65;;
42140;SDS011;27809;51.864;5.646;2023-04-09T03:15:53;21.02;;;12.93;;
42140;SDS011;27809;51.864;5.646;2023-04-09T03:18:19;24.95;;;12.50;;
42140;SDS011;27809;51.864;5.646;2023-04-09T03:20:45;24.77;;;13.02;;
42140;SDS011;27809;51.864;5.646;2023-04-09T03:23:10;26.08;;;12.27;;
42140;SDS011;27809;51.864;5.646;2023-04-09T03:25:36;26.90;;;13.70;;
42140;SDS011;27809;51.864;5.646;2023-04-09T03:28:02;29.42;;;14.43;;
42140;SDS011;27809;51.864;5.646;2023-04-09T03:30:27;25.23;;;14.32;;
42140;SDS011;27809;51.864;5.646;2023-04-09T03:32:53;28.10;;;14.43;;
42140;SDS011;27809;51.864;5.646;2023-04-09T03:35:19;35.28;;;15.23;;
42140;SDS011;27809;51.864;5.646;2023-04-09T03:37:45;29.35;;;15.75;;
42140;SDS011;27809;51.864;5.646;2023-04-09T03:40:11;44.55;;;20.35;;
42140;SDS011;27809;51.864;5.646;2023-04-09T03:42:37;38.55;;;19.33;;
42140;SDS011;27809;51.864;5.646;2023-04-09T03:45:03;41.72;;;22.40;;
42140;SDS011;27809;51.864;5.646;2023-04-09T03:47:29;56.70;;;21.85;;
42140;SDS011;27809;51.864;5.646;2023-04-09T03:49:54;45.47;;;20.73;;
42140;SDS011;27809;51.864;5.646;2023-04-09T03:52:20;43.97;;;21.75;;
42140;SDS011;27809;51.864;5.646;2023-04-09T03:54:46;45.83;;;23.92;;
42140;SDS011;27809;51.864;5.646;2023-04-09T03:57:11;42.78;;;21.40;;
42140;SDS011;27809;51.864;5.646;2023-04-09T03:59:37;49.20;;;23.48;;
42140;SDS011;27809;51.864;5.646;2023-04-09T04:02:02;48.05;;;24.63;;
42140;SDS011;27809;51.864;5.646;2023-04-09T04:04:28;47.60;;;23.88;;
42140;SDS011;27809;51.864;5.646;2023-04-09T04:06:53;43.55;;;23.27;;
42140;SDS011;27809;51.864;5.646;2023-04-09T04:09:19;50.35;;;25.00;;
42140;SDS011;27809;51.864;5.646;2023-04-09T04:11:44;47.83;;;24.00;;
42140;SDS011;27809;51.864;5.646;2023-04-09T04:14:09;43.15;;;22.40;;
42140;SDS011;27809;51.864;5.646;2023-04-09T04:16:35;47.72;;;24.65;;
42140;SDS011;27809;51.864;5.646;2023-04-09T04:19:01;42.70;;;21.85;;
42140;SDS011;27809;51.864;5.646;2023-04-09T04:21:26;41.58;;;21.33;;
42140;SDS011;27809;51.864;5.646;2023-04-09T04:23:52;38.50;;;20.25;;
42140;SDS011;27809;51.864;5.646;2023-04-09T04:26:17;41.05;;;20.58;;
42140;SDS011;27809;51.864;5.646;2023-04-09T04:28:43;31.10;;;16.55;;
42140;SDS011;27809;51.864;5.646;2023-04-09T04:31:08;38.28;;;18.58;;
42140;SDS011;27809;51.864;5.646;2023-04-09T04:33:35;34.33;;;18.23;;
42140;SDS011;27809;51.864;5.646;2023-04-09T04:36:05;34.08;;;17.40;;
42140;SDS011;27809;51.864;5.646;2023-04-09T04:38:31;34.85;;;17.95;;
42140;SDS011;27809;51.864;5.646;2023-04-09T04:40:57;33.08;;;17.00;;
42140;SDS011;27809;51.864;5.646;2023-04-09T04:43:23;25.23;;;14.25;;
42140;SDS011;27809;51.864;5.646;2023-04-09T04:45:48;27.10;;;14.32;;
42140;SDS011;27809;51.864;5.646;2023-04-09T04:48:14;28.70;;;15.25;;
42140;SDS011;27809;51.864;5.646;2023-04-09T04:50:39;27.58;;;14.18;;
42140;SDS011;27809;51.864;5.646;2023-04-09T04:53:05;31.05;;;15.40;;
42140;SDS011;27809;51.864;5.646;2023-04-09T04:55:30;25.45;;;13.40;;
42140;SDS011;27809;51.864;5.646;2023-04-09T04:57:56;27.33;;;14.25;;
42140;SDS011;27809;51.864;5.646;2023-04-09T05:00:21;24.00;;;13.35;;
42140;SDS011;27809;51.864;5.646;2023-04-09T05:02:47;23.85;;;12.65;;
42140;SDS011;27809;51.864;5.646;2023-04-09T05:05:12;28.92;;;14.23;;
42140;SDS011;27809;51.864;5.646;2023-04-09T05:07:38;25.25;;;14.95;;
42140;SDS011;27809;51.864;5.646;2023-04-09T05:10:03;28.15;;;13.40;;
42140;SDS011;27809;51.864;5.646;2023-04-09T05:12:30;27.58;;;13.32;;
42140;SDS011;27809;51.864;5.646;2023-04-09T05:14:56;23.65;;;12.52;;
42140;SDS011;27809;51.864;5.646;2023-04-09T05:17:21;23.40;;;13.32;;
42140;SDS011;27809;51.864;5.646;2023-04-09T05:19:51;24.38;;;14.27;;
42140;SDS011;27809;51.864;5.646;2023-04-09T05:22:17;32.88;;;15.57;;
42140;SDS011;27809;51.864;5.646;2023-04-09T05:24:43;31.90;;;14.45;;
42140;SDS011;27809;51.864;5.646;2023-04-09T05:27:08;23.00;;;10.85;;
42140;SDS011;27809;51.864;5.646;2023-04-09T05:29:34;25.20;;;12.80;;
42140;SDS011;27809;51.864;5.646;2023-04-09T05:31:59;26.00;;;11.50;;
42140;SDS011;27809;51.864;5.646;2023-04-09T05:34:25;21.35;;;11.80;;
42140;SDS011;27809;51.864;5.646;2023-04-09T05:36:51;29.05;;;13.13;;
42140;SDS011;27809;51.864;5.646;2023-04-09T05:39:17;28.92;;;13.93;;
42140;SDS011;27809;51.864;5.646;2023-04-09T05:41:43;20.50;;;11.35;;
42140;SDS011;27809;51.864;5.646;2023-04-09T05:44:09;23.65;;;12.05;;
42140;SDS011;27809;51.864;5.646;2023-04-09T05:46:35;23.67;;;10.98;;
42140;SDS011;27809;51.864;5.646;2023-04-09T05:49:01;26.38;;;11.23;;
42140;SDS011;27809;51.864;5.646;2023-04-09T05:51:27;21.98;;;11.88;;
42140;SDS011;27809;51.864;5.646;2023-04-09T05:53:52;29.23;;;14.00;;
42140;SDS011;27809;51.864;5.646;2023-04-09T05:56:18;25.55;;;12.25;;
42140;SDS011;27809;51.864;5.646;2023-04-09T05:58:46;23.35;;;12.13;;
42140;SDS011;27809;51.864;5.646;2023-04-09T06:01:12;27.67;;;13.38;;
42140;SDS011;27809;51.864;5.646;2023-04-09T06:03:37;25.38;;;12.10;;
42140;SDS011;27809;51.864;5.646;2023-04-09T06:06:03;26.77;;;12.75;;
42140;SDS011;27809;51.864;5.646;2023-04-09T06:08:29;30.85;;;15.73;;
42140;SDS011;27809;51.864;5.646;2023-04-09T06:10:54;24.90;;;11.48;;
42140;SDS011;27809;51.864;5.646;2023-04-09T06:13:20;28.42;;;15.15;;
42140;SDS011;27809;51.864;5.646;2023-04-09T06:15:45;30.25;;;14.43;;
42140;SDS011;27809;51.864;5.646;2023-04-09T06:18:12;26.63;;;12.50;;
42140;SDS011;27809;51.864;5.646;2023-04-09T06:20:37;34.22;;;14.20;;
42140;SDS011;27809;51.864;5.646;2023-04-09T06:23:03;24.45;;;12.48;;
42140;SDS011;27809;51.864;5.646;2023-04-09T06:25:29;23.35;;;11.88;;
42140;SDS011;27809;51.864;5.646;2023-04-09T06:27:54;24.05;;;12.38;;
42140;SDS011;27809;51.864;5.646;2023-04-09T06:30:20;29.77;;;14.55;;
42140;SDS011;27809;51.864;5.646;2023-04-09T06:32:46;31.10;;;14.60;;
42140;SDS011;27809;51.864;5.646;2023-04-09T06:35:13;23.83;;;13.57;;
42140;SDS011;27809;51.864;5.646;2023-04-09T06:37:39;27.05;;;13.95;;
42140;SDS011;27809;51.864;5.646;2023-04-09T06:40:05;25.70;;;14.50;;
42140;SDS011;27809;51.864;5.646;2023-04-09T06:42:31;30.35;;;14.80;;
42140;SDS011;27809;51.864;5.646;2023-04-09T06:44:57;24.00;;;12.40;;
42140;SDS011;27809;51.864;5.646;2023-04-09T06:47:22;29.13;;;14.90;;
42140;SDS011;27809;51.864;5.646;2023-04-09T06:49:48;28.98;;;13.25;;
42140;SDS011;27809;51.864;5.646;2023-04-09T06:52:13;26.05;;;13.07;;
42140;SDS011;27809;51.864;5.646;2023-04-09T06:54:39;24.25;;;12.98;;
42140;SDS011;27809;51.864;5.646;2023-04-09T06:57:05;45.75;;;14.10;;
42140;SDS011;27809;51.864;5.646;2023-04-09T06:59:31;30.67;;;14.13;;
42140;SDS011;27809;51.864;5.646;2023-04-09T07:01:57;29.08;;;15.05;;
42140;SDS011;27809;51.864;5.646;2023-04-09T07:04:23;36.10;;;15.50;;
42140;SDS011;27809;51.864;5.646;2023-04-09T07:06:49;27.13;;;15.13;;
42140;SDS011;27809;51.864;5.646;2023-04-09T07:09:16;24.77;;;13.93;;
42140;SDS011;27809;51.864;5.646;2023-04-09T07:11:42;35.70;;;16.25;;
42140;SDS011;27809;51.864;5.646;2023-04-09T07:14:08;29.15;;;15.40;;
42140;SDS011;27809;51.864;5.646;2023-04-09T07:16:33;25.35;;;13.48;;
42140;SDS011;27809;51.864;5.646;2023-04-09T07:18:59;27.33;;;14.50;;
42140;SDS011;27809;51.864;5.646;2023-04-09T07:21:24;31.38;;;14.85;;
42140;SDS011;27809;51.864;5.646;2023-04-09T07:23:52;24.27;;;13.18;;
42140;SDS011;27809;51.864;5.646;2023-04-09T07:26:17;31.10;;;13.35;;
42140;SDS011;27809;51.864;5.646;2023-04-09T07:28:43;19.90;;;11.73;;
42140;SDS011;27809;51.864;5.646;2023-04-09T07:31:09;29.05;;;14.70;;
42140;SDS011;27809;51.864;5.646;2023-04-09T07:33:35;30.17;;;13.55;;
42140;SDS011;27809;51.864;5.646;2023-04-09T07:36:01;22.13;;;11.50;;
42140;SDS011;27809;51.864;5.646;2023-04-09T07:38:27;30.92;;;15.43;;
42140;SDS011;27809;51.864;5.646;2023-04-09T07:40:54;25.27;;;13.30;;
42140;SDS011;27809;51.864;5.646;2023-04-09T07:43:20;24.70;;;12.50;;
42140;SDS011;27809;51.864;5.646;2023-04-09T07:45:47;22.10;;;12.82;;
42140;SDS011;27809;51.864;5.646;2023-04-09T07:48:13;24.63;;;13.07;;
42140;SDS011;27809;51.864;5.646;2023-04-09T07:50:39;27.17;;;13.70;;
42140;SDS011;27809;51.864;5.646;2023-04-09T07:53:04;25.73;;;13.63;;
42140;SDS011;27809;51.864;5.646;2023-04-09T07:55:30;28.60;;;13.60;;
42140;SDS011;27809;51.864;5.646;2023-04-09T07:57:55;25.08;;;13.48;;
42140;SDS011;27809;51.864;5.646;2023-04-09T08:00:21;23.38;;;13.30;;
42140;SDS011;27809;51.864;5.646;2023-04-09T08:02:46;23.35;;;13.43;;
42140;SDS011;27809;51.864;5.646;2023-04-09T08:05:12;26.02;;;13.07;;
42140;SDS011;27809;51.864;5.646;2023-04-09T08:07:37;20.83;;;11.35;;
42140;SDS011;27809;51.864;5.646;2023-04-09T08:10:04;24.90;;;13.13;;
42140;SDS011;27809;51.864;5.646;2023-04-09T08:12:30;18.33;;;10.00;;
42140;SDS011;27809;51.864;5.646;2023-04-09T08:14:56;11.13;;;6.30;;
42140;SDS011;27809;51.864;5.646;2023-04-09T08:17:21;12.07;;;6.18;;
42140;SDS011;27809;51.864;5.646;2023-04-09T08:19:47;12.70;;;7.63;;
42140;SDS011;27809;51.864;5.646;2023-04-09T08:22:13;12.07;;;6.57;;
42140;SDS011;27809;51.864;5.646;2023-04-09T08:24:41;8.10;;;5.40;;
42140;SDS011;27809;51.864;5.646;2023-04-09T08:27:07;12.82;;;5.78;;
42140;SDS011;27809;51.864;5.646;2023-04-09T08:29:33;15.70;;;8.23;;
42140;SDS011;27809;51.864;5.646;2023-04-09T08:31:59;10.68;;;6.10;;
42140;SDS011;27809;51.864;5.646;2023-04-09T08:34:25;14.65;;;7.53;;
42140;SDS011;27809;51.864;5.646;2023-04-09T08:36:50;17.95;;;9.38;;
42140;SDS011;27809;51.864;5.646;2023-04-09T08:39:16;15.55;;;9.15;;
42140;SDS011;27809;51.864;5.646;2023-04-09T08:41:44;15.00;;;9.82;;
42140;SDS011;27809;51.864;5.646;2023-04-09T08:44:12;15.45;;;8.30;;
42140;SDS011;27809;51.864;5.646;2023-04-09T08:46:38;14.98;;;9.23;;
42140;SDS011;27809;51.864;5.646;2023-04-09T08:49:03;17.13;;;9.32;;
42140;SDS011;27809;51.864;5.646;2023-04-09T08:51:29;17.17;;;10.30;;
42140;SDS011;27809;51.864;5.646;2023-04-09T08:53:56;12.40;;;7.68;;
42140;SDS011;27809;51.864;5.646;2023-04-09T08:56:23;11.90;;;7.57;;
42140;SDS011;27809;51.864;5.646;2023-04-09T08:58:49;13.95;;;8.48;;
42140;SDS011;27809;51.864;5.646;2023-04-09T09:06:29;18.70;;;8.45;;
42140;SDS011;27809;51.864;5.646;2023-04-09T09:11:38;15.45;;;9.52;;
42140;SDS011;27809;51.864;5.646;2023-04-09T09:14:09;16.20;;;9.05;;
42140;SDS011;27809;51.864;5.646;2023-04-09T09:16:39;13.55;;;7.80;;
42140;SDS011;27809;51.864;5.646;2023-04-09T09:22:00;14.70;;;9.02;;
42140;SDS011;27809;51.864;5.646;2023-04-09T09:24:27;10.85;;;6.72;;
42140;SDS011;27809;51.864;5.646;2023-04-09T09:26:53;14.05;;;9.15;;
42140;SDS011;27809;51.864;5.646;2023-04-09T09:29:19;12.25;;;7.22;;
42140;SDS011;27809;51.864;5.646;2023-04-09T09:31:48;12.82;;;7.80;;
42140;SDS011;27809;51.864;5.646;2023-04-09T09:34:15;11.65;;;7.40;;
42140;SDS011;27809;51.864;5.646;2023-04-09T09:36:42;12.60;;;8.20;;
42140;SDS011;27809;51.864;5.646;2023-04-09T09:39:08;12.20;;;6.80;;
42140;SDS011;27809;51.864;5.646;2023-04-09T09:41:36;14.43;;;7.95;;
42140;SDS011;27809;51.864;5.646;2023-04-09T09:44:02;14.82;;;8.77;;
42140;SDS011;27809;51.864;5.646;2023-04-09T09:46:33;15.07;;;4.32;;
42140;SDS011;27809;51.864;5.646;2023-04-09T09:48:59;6.95;;;4.30;;
42140;SDS011;27809;51.864;5.646;2023-04-09T09:51:25;6.20;;;3.42;;
42140;SDS011;27809;51.864;5.646;2023-04-09T09:53:55;7.05;;;4.30;;
42140;SDS011;27809;51.864;5.646;2023-04-09T09:56:22;6.05;;;3.90;;
42140;SDS011;27809;51.864;5.646;2023-04-09T09:58:59;6.07;;;3.75;;
42140;SDS011;27809;51.864;5.646;2023-04-09T10:01:43;5.93;;;3.33;;
42140;SDS011;27809;51.864;5.646;2023-04-09T10:04:13;6.38;;;4.10;;
42140;SDS011;27809;51.864;5.646;2023-04-09T10:06:43;10.30;;;5.00;;
42140;SDS011;27809;51.864;5.646;2023-04-09T10:09:09;5.78;;;3.70;;
42140;SDS011;27809;51.864;5.646;2023-04-09T10:11:35;6.68;;;3.80;;
42140;SDS011;27809;51.864;5.646;2023-04-09T10:14:01;6.72;;;3.92;;
42140;SDS011;27809;51.864;5.646;2023-04-09T10:16:29;5.80;;;3.53;;
42140;SDS011;27809;51.864;5.646;2023-04-09T10:18:56;6.30;;;3.78;;
42140;SDS011;27809;51.864;5.646;2023-04-09T10:23:48;5.68;;;3.45;;
42140;SDS011;27809;51.864;5.646;2023-04-09T10:26:15;4.97;;;2.92;;
42140;SDS011;27809;51.864;5.646;2023-04-09T10:28:42;5.97;;;3.47;;
42140;SDS011;27809;51.864;5.646;2023-04-09T10:31:08;7.45;;;3.88;;
42140;SDS011;27809;51.864;5.646;2023-04-09T10:33:35;4.30;;;2.85;;
42140;SDS011;27809;51.864;5.646;2023-04-09T10:36:05;8.43;;;5.03;;
42140;SDS011;27809;51.864;5.646;2023-04-09T10:38:35;7.43;;;4.60;;
42140;SDS011;27809;51.864;5.646;2023-04-09T10:41:14;5.53;;;3.38;;
42140;SDS011;27809;51.864;5.646;2023-04-09T10:43:49;8.30;;;5.43;;
42140;SDS011;27809;51.864;5.646;2023-04-09T10:46:33;13.10;;;5.00;;
42140;SDS011;27809;51.864;5.646;2023-04-09T10:49:34;6.22;;;4.13;;
42140;SDS011;27809;51.864;5.646;2023-04-09T10:52:05;9.30;;;4.82;;
42140;SDS011;27809;51.864;5.646;2023-04-09T10:59:40;5.63;;;1.75;;
42140;SDS011;27809;51.864;5.646;2023-04-09T11:08:30;6.07;;;2.88;;
42140;SDS011;27809;51.864;5.646;2023-04-09T11:10:38;3.92;;;2.28;;
42140;SDS011;27809;51.864;5.646;2023-04-09T11:13:10;5.22;;;2.30;;
42140;SDS011;27809;51.864;5.646;2023-04-09T11:15:37;5.45;;;2.60;;
42140;SDS011;27809;51.864;5.646;2023-04-09T11:18:03;6.40;;;1.67;;
42140;SDS011;27809;51.864;5.646;2023-04-09T11:20:32;4.00;;;2.05;;
42140;SDS011;27809;51.864;5.646;2023-04-09T11:22:58;3.17;;;2.05;;
42140;SDS011;27809;51.864;5.646;2023-04-09T11:25:25;8.23;;;1.65;;
42140;SDS011;27809;51.864;5.646;2023-04-09T11:27:51;6.10;;;2.88;;
42140;SDS011;27809;51.864;5.646;2023-04-09T11:30:18;4.05;;;2.20;;
42140;SDS011;27809;51.864;5.646;2023-04-09T11:32:44;3.95;;;1.70;;
42140;SDS011;27809;51.864;5.646;2023-04-09T11:35:13;3.63;;;1.40;;
42140;SDS011;27809;51.864;5.646;2023-04-09T11:37:40;5.05;;;2.92;;
42140;SDS011;27809;51.864;5.646;2023-04-09T11:40:17;3.78;;;1.63;;
42140;SDS011;27809;51.864;5.646;2023-04-09T11:42:45;3.70;;;1.95;;
42140;SDS011;27809;51.864;5.646;2023-04-09T11:45:13;3.13;;;1.52;;
42140;SDS011;27809;51.864;5.646;2023-04-09T11:47:40;6.30;;;3.20;;
42140;SDS011;27809;51.864;5.646;2023-04-09T11:50:07;6.43;;;3.78;;
42140;SDS011;27809;51.864;5.646;2023-04-09T11:52:34;5.22;;;3.22;;
42140;SDS011;27809;51.864;5.646;2023-04-09T11:55:00;5.90;;;2.97;;
42140;SDS011;27809;51.864;5.646;2023-04-09T12:00:25;7.60;;;4.55;;
42140;SDS011;27809;51.864;5.646;2023-04-09T12:03:01;8.35;;;4.28;;
42140;SDS011;27809;51.864;5.646;2023-04-09T12:05:28;6.95;;;4.18;;
42140;SDS011;27809;51.864;5.646;2023-04-09T12:07:56;8.30;;;3.60;;
42140;SDS011;27809;51.864;5.646;2023-04-09T12:10:28;7.53;;;3.97;;
42140;SDS011;27809;51.864;5.646;2023-04-09T12:12:59;7.30;;;3.75;;
42140;SDS011;27809;51.864;5.646;2023-04-09T12:15:32;9.40;;;4.95;;
42140;SDS011;27809;51.864;5.646;2023-04-09T12:17:59;9.55;;;5.70;;
42140;SDS011;27809;51.864;5.646;2023-04-09T12:20:34;7.00;;;4.10;;
42140;SDS011;27809;51.864;5.646;2023-04-09T12:23:03;8.18;;;5.13;;
42140;SDS011;27809;51.864;5.646;2023-04-09T12:25:30;8.77;;;5.43;;
42140;SDS011;27809;51.864;5.646;2023-04-09T12:27:57;7.43;;;4.35;;
42140;SDS011;27809;51.864;5.646;2023-04-09T12:30:23;9.30;;;5.18;;
42140;SDS011;27809;51.864;5.646;2023-04-09T12:32:49;10.82;;;5.13;;
42140;SDS011;27809;51.864;5.646;2023-04-09T12:35:16;6.55;;;4.60;;
42140;SDS011;27809;51.864;5.646;2023-04-09T12:37:41;7.55;;;4.85;;
42140;SDS011;27809;51.864;5.646;2023-04-09T12:40:07;7.53;;;4.38;;
42140;SDS011;27809;51.864;5.646;2023-04-09T12:42:33;8.63;;;5.20;;
42140;SDS011;27809;51.864;5.646;2023-04-09T12:44:59;10.85;;;5.25;;
42140;SDS011;27809;51.864;5.646;2023-04-09T12:47:25;6.18;;;4.05;;
42140;SDS011;27809;51.864;5.646;2023-04-09T12:49:51;9.27;;;3.92;;
42140;SDS011;27809;51.864;5.646;2023-04-09T12:52:17;6.22;;;3.92;;
42140;SDS011;27809;51.864;5.646;2023-04-09T12:54:43;10.55;;;5.47;;
42140;SDS011;27809;51.864;5.646;2023-04-09T12:57:35;9.60;;;4.45;;
42140;SDS011;27809;51.864;5.646;2023-04-09T13:00:06;8.45;;;4.35;;
42140;SDS011;27809;51.864;5.646;2023-04-09T13:02:32;9.35;;;5.32;;
42140;SDS011;27809;51.864;5.646;2023-04-09T13:04:58;8.70;;;5.05;;
42140;SDS011;27809;51.864;5.646;2023-04-09T13:07:23;8.45;;;4.65;;
42140;SDS011;27809;51.864;5.646;2023-04-09T13:09:50;8.27;;;5.30;;
42140;SDS011;27809;51.864;5.646;2023-04-09T13:12:16;11.82;;;5.60;;
42140;SDS011;27809;51.864;5.646;2023-04-09T13:14:43;8.25;;;4.60;;
42140;SDS011;27809;51.864;5.646;2023-04-09T13:17:10;11.75;;;5.47;;
42140;SDS011;27809;51.864;5.646;2023-04-09T13:19:35;7.75;;;4.97;;
42140;SDS011;27809;51.864;5.646;2023-04-09T13:22:01;4.95;;;2.80;;
42140;SDS011;27809;51.864;5.646;2023-04-09T13:24:27;5.47;;;3.38;;
42140;SDS011;27809;51.864;5.646;2023-04-09T13:26:52;6.03;;;3.75;;
42140;SDS011;27809;51.864;5.646;2023-04-09T13:29:18;5.53;;;3.28;;
42140;SDS011;27809;51.864;5.646;2023-04-09T13:31:44;5.38;;;2.92;;
42140;SDS011;27809;51.864;5.646;2023-04-09T13:34:09;8.40;;;3.92;;
42140;SDS011;27809;51.864;5.646;2023-04-09T13:36:35;7.22;;;4.10;;
42140;SDS011;27809;51.864;5.646;2023-04-09T13:39:01;5.97;;;3.25;;
42140;SDS011;27809;51.864;5.646;2023-04-09T13:41:34;4.75;;;3.10;;
42140;SDS011;27809;51.864;5.646;2023-04-09T13:44:00;6.20;;;3.70;;
42140;SDS011;27809;51.864;5.646;2023-04-09T13:46:26;6.45;;;3.00;;
42140;SDS011;27809;51.864;5.646;2023-04-09T13:48:52;5.07;;;3.00;;
42140;SDS011;27809;51.864;5.646;2023-04-09T13:51:18;9.43;;;3.70;;
42140;SDS011;27809;51.864;5.646;2023-04-09T13:53:47;6.15;;;3.90;;
42140;SDS011;27809;51.864;5.646;2023-04-09T13:56:14;7.40;;;4.30;;
42140;SDS011;27809;51.864;5.646;2023-04-09T13:58:40;6.95;;;4.72;;
42140;SDS011;27809;51.864;5.646;2023-04-09T14:01:07;5.85;;;4.03;;
42140;SDS011;27809;51.864;5.646;2023-04-09T14:03:33;7.50;;;4.07;;
42140;SDS011;27809;51.864;5.646;2023-04-09T14:05:58;6.70;;;4.20;;
42140;SDS011;27809;51.864;5.646;2023-04-09T14:08:25;9.23;;;4.28;;
42140;SDS011;27809;51.864;5.646;2023-04-09T14:10:51;6.10;;;3.47;;
42140;SDS011;27809;51.864;5.646;2023-04-09T14:13:16;5.20;;;3.22;;
42140;SDS011;27809;51.864;5.646;2023-04-09T14:15:42;6.68;;;4.32;;
42140;SDS011;27809;51.864;5.646;2023-04-09T14:18:09;9.30;;;3.80;;
42140;SDS011;27809;51.864;5.646;2023-04-09T14:20:34;5.90;;;4.00;;
42140;SDS011;27809;51.864;5.646;2023-04-09T14:23:00;7.03;;;4.80;;
42140;SDS011;27809;51.864;5.646;2023-04-09T14:25:26;6.78;;;3.83;;
42140;SDS011;27809;51.864;5.646;2023-04-09T14:27:51;7.57;;;4.78;;
42140;SDS011;27809;51.864;5.646;2023-04-09T14:30:17;5.88;;;3.60;;
42140;SDS011;27809;51.864;5.646;2023-04-09T14:32:44;6.75;;;4.50;;
42140;SDS011;27809;51.864;5.646;2023-04-09T14:35:10;9.35;;;5.55;;
42140;SDS011;27809;51.864;5.646;2023-04-09T14:37:35;7.78;;;4.60;;
42140;SDS011;27809;51.864;5.646;2023-04-09T14:40:02;7.50;;;4.68;;
42140;SDS011;27809;51.864;5.646;2023-04-09T14:42:28;7.72;;;4.15;;
42140;SDS011;27809;51.864;5.646;2023-04-09T14:44:54;8.32;;;4.53;;
42140;SDS011;27809;51.864;5.646;2023-04-09T14:47:20;10.48;;;5.57;;
42140;SDS011;27809;51.864;5.646;2023-04-09T14:49:45;6.60;;;4.18;;
42140;SDS011;27809;51.864;5.646;2023-04-09T14:52:10;6.05;;;3.92;;
42140;SDS011;27809;51.864;5.646;2023-04-09T14:54:36;8.40;;;4.85;;
42140;SDS011;27809;51.864;5.646;2023-04-09T14:57:01;5.88;;;3.75;;
42140;SDS011;27809;51.864;5.646;2023-04-09T14:59:27;7.10;;;4.45;;
42140;SDS011;27809;51.864;5.646;2023-04-09T15:01:53;6.50;;;3.78;;
42140;SDS011;27809;51.864;5.646;2023-04-09T15:04:18;6.65;;;4.43;;
42140;SDS011;27809;51.864;5.646;2023-04-09T15:06:44;8.10;;;3.40;;